createdAt,value
2023-01-25T00:00:55.979Z,41.78
2023-01-25T00:05:00.891Z,37.45
2023-01-25T00:09:03.570Z,36.47
2023-01-25T00:13:05.865Z,36.97
2023-01-25T00:17:07.775Z,36.72
2023-01-25T00:21:27.991Z,34.30
2023-01-25T00:25:29.987Z,35.65
2023-01-25T00:29:31.965Z,33.13
2023-01-25T00:34:06.178Z,29.67
2023-01-25T00:38:28.963Z,25.73
2023-01-25T00:42:31.028Z,22.08
2023-01-25T00:46:33.152Z,17.00
2023-01-25T00:50:37.665Z,21.25
2023-01-25T00:54:41.015Z,19.52
2023-01-25T00:58:43.537Z,21.15
2023-01-25T01:02:46.452Z,18.00
2023-01-25T01:06:49.713Z,20.70
2023-01-25T01:10:51.661Z,22.20
2023-01-25T01:14:53.701Z,21.35
2023-01-25T01:18:55.649Z,21.58
2023-01-25T01:22:57.923Z,24.55
2023-01-25T01:26:59.841Z,25.63
2023-01-25T01:31:03.447Z,26.95
2023-01-25T01:35:09.844Z,25.13
2023-01-25T01:39:12.421Z,27.67
2023-01-25T01:43:23.356Z,27.23
2023-01-25T01:47:39.107Z,26.40
2023-01-25T01:51:55.813Z,28.20
2023-01-25T01:56:05.563Z,28.88
2023-01-25T02:00:08.076Z,26.63
2023-01-25T02:04:21.326Z,40.08
2023-01-25T02:08:24.791Z,28.17
2023-01-25T02:12:27.946Z,24.52
2023-01-25T02:16:30.181Z,27.65
2023-01-25T02:20:37.538Z,27.52
2023-01-25T02:24:47.287Z,24.73
2023-01-25T02:28:58.398Z,24.67
2023-01-25T02:33:00.855Z,23.60
2023-01-25T02:37:02.957Z,23.65
2023-01-25T02:41:18.154Z,23.90
2023-01-25T02:45:25.355Z,23.42
2023-01-25T02:49:27.983Z,24.92
2023-01-25T02:53:29.950Z,23.80
2023-01-25T02:57:31.647Z,24.05
2023-01-25T03:01:38.391Z,22.45
2023-01-25T03:05:41.745Z,23.67
2023-01-25T03:09:43.691Z,22.80
2023-01-25T03:13:45.644Z,25.98
2023-01-25T03:17:47.890Z,31.48
2023-01-25T03:21:49.915Z,24.42
2023-01-25T03:25:52.880Z,23.38
2023-01-25T03:29:54.751Z,22.45
2023-01-25T03:34:00.139Z,23.02
2023-01-25T03:38:07.476Z,21.73
2023-01-25T03:42:09.459Z,23.90
2023-01-25T03:46:11.488Z,24.20
2023-01-25T03:50:14.008Z,25.67
2023-01-25T03:54:16.967Z,21.23
2023-01-25T03:58:19.206Z,22.98
2023-01-25T04:02:21.024Z,17.05
2023-01-25T04:06:23.325Z,13.00
2023-01-25T04:10:26.002Z,13.70
2023-01-25T04:14:43.569Z,13.15
2023-01-25T04:18:48.316Z,12.77
2023-01-25T04:22:50.922Z,9.82
2023-01-25T04:26:54.842Z,11.75
2023-01-25T04:30:58.147Z,12.60
2023-01-25T04:35:06.673Z,14.27
2023-01-25T04:39:08.879Z,12.82
2023-01-25T04:43:18.610Z,10.35
2023-01-25T04:47:21.167Z,13.45
2023-01-25T04:51:23.500Z,12.48
2023-01-25T04:55:26.119Z,15.52
2023-01-25T04:59:30.157Z,13.73
2023-01-25T05:03:32.130Z,13.80
2023-01-25T05:07:34.319Z,14.65
2023-01-25T05:11:36.504Z,13.38
2023-01-25T05:15:57.453Z,13.30
2023-01-25T05:19:59.880Z,14.05
2023-01-25T05:24:01.608Z,20.20
2023-01-25T05:28:06.873Z,19.08
2023-01-25T05:32:40.888Z,17.52
2023-01-25T05:36:43.121Z,30.63
2023-01-25T05:40:44.893Z,35.25
2023-01-25T05:44:48.154Z,38.63
2023-01-25T05:48:51.294Z,38.47
2023-01-25T05:52:54.028Z,40.10
2023-01-25T05:56:56.238Z,42.65
2023-01-25T06:01:02.809Z,45.53
2023-01-25T06:05:14.930Z,44.63
2023-01-25T06:09:17.410Z,42.50
2023-01-25T06:13:22.353Z,45.33
2023-01-25T06:17:24.322Z,43.75
2023-01-25T06:21:33.337Z,45.17
2023-01-25T06:25:35.255Z,46.28
2023-01-25T06:29:37.202Z,46.30
2023-01-25T06:33:40.659Z,45.65
2023-01-25T06:37:42.851Z,46.38
2023-01-25T06:41:44.773Z,47.67
2023-01-25T06:45:46.741Z,52.70
2023-01-25T06:49:48.761Z,52.45
2023-01-25T06:53:50.847Z,53.28
2023-01-25T06:57:52.807Z,49.97
2023-01-25T07:01:54.816Z,49.85
2023-01-25T07:06:01.911Z,50.10
2023-01-25T07:10:04.347Z,48.83
2023-01-25T07:14:06.649Z,51.50
2023-01-25T07:18:16.152Z,50.08
2023-01-25T07:22:18.724Z,49.85
2023-01-25T07:26:25.688Z,48.72
2023-01-25T07:30:27.604Z,48.50
2023-01-25T07:34:29.576Z,47.75
2023-01-25T07:38:31.614Z,47.80
2023-01-25T07:42:33.381Z,49.72
2023-01-25T07:46:47.342Z,46.78
2023-01-25T07:51:09.229Z,44.13
2023-01-25T07:55:11.342Z,38.13
2023-01-25T07:59:14.272Z,37.42
2023-01-25T08:03:16.198Z,42.40
2023-01-25T08:07:18.241Z,44.90
2023-01-25T08:11:23.159Z,37.17
2023-01-25T08:15:24.868Z,33.75
2023-01-25T08:19:26.984Z,41.00
2023-01-25T08:23:29.506Z,36.97
2023-01-25T08:27:31.609Z,35.92
2023-01-25T08:31:35.277Z,38.03
2023-01-25T08:35:37.304Z,38.03
2023-01-25T08:39:39.306Z,35.53
2023-01-25T08:43:42.460Z,40.17
2023-01-25T08:47:44.199Z,36.17
2023-01-25T08:51:47.295Z,35.78
2023-01-25T08:55:49.338Z,36.83
2023-01-25T08:59:51.118Z,36.85
2023-01-25T09:03:54.168Z,34.78
2023-01-25T09:07:56.160Z,35.78
2023-01-25T09:11:58.202Z,38.80
2023-01-25T09:16:06.360Z,36.97
2023-01-25T09:20:09.511Z,37.28
2023-01-25T09:24:12.013Z,37.20
2023-01-25T09:28:13.985Z,37.42
2023-01-25T09:32:15.914Z,39.22
2023-01-25T09:36:27.498Z,37.88
2023-01-25T09:40:38.924Z,37.00
2023-01-25T09:44:53.118Z,38.38
2023-01-25T09:49:36.681Z,38.92
2023-01-25T09:53:47.490Z,40.03
2023-01-25T09:57:53.833Z,42.88
2023-01-25T10:02:13.186Z,41.35
2023-01-25T10:06:17.080Z,42.72
2023-01-25T10:10:38.898Z,40.05
2023-01-25T10:14:40.930Z,39.97
2023-01-25T10:18:55.719Z,43.42
2023-01-25T10:23:07.955Z,43.63
2023-01-25T10:27:34.008Z,42.15
2023-01-25T10:31:46.522Z,42.35
2023-01-25T10:35:49.969Z,44.17
2023-01-25T10:40:04.093Z,42.67
2023-01-25T10:44:24.831Z,41.92
2023-01-25T10:48:31.139Z,41.90
2023-01-25T10:52:35.516Z,45.22
2023-01-25T10:56:40.289Z,44.85
2023-01-25T11:00:42.593Z,43.92
2023-01-25T11:04:47.723Z,45.45
2023-01-25T11:08:51.058Z,43.22
2023-01-25T11:13:21.443Z,45.97
2023-01-25T11:17:31.469Z,43.88
2023-01-25T11:21:34.835Z,46.90
2023-01-25T11:25:36.638Z,45.53
2023-01-25T11:29:38.899Z,46.17
2023-01-25T11:33:41.976Z,46.08
2023-01-25T11:38:17.995Z,47.90
2023-01-25T11:42:47.236Z,45.92
2023-01-25T11:47:07.174Z,48.75
2023-01-25T11:51:27.382Z,48.20
2023-01-25T11:55:32.953Z,48.65
2023-01-25T11:59:57.173Z,45.88
2023-01-25T12:04:36.734Z,50.92
2023-01-25T12:08:41.985Z,51.67
2023-01-25T12:12:56.589Z,50.60
2023-01-25T12:17:42.774Z,48.65
2023-01-25T12:22:28.761Z,53.53
2023-01-25T12:27:12.292Z,51.22
2023-01-25T12:31:22.142Z,50.83
2023-01-25T12:35:37.479Z,53.45
2023-01-25T12:39:47.700Z,47.40
2023-01-25T12:44:06.398Z,49.35
2023-01-25T12:48:31.155Z,51.42
2023-01-25T12:52:36.357Z,49.03
2023-01-25T12:56:58.312Z,51.33
2023-01-25T13:01:03.151Z,51.33
2023-01-25T13:05:33.837Z,49.22
2023-01-25T13:10:00.226Z,48.63
2023-01-25T13:14:17.692Z,49.00
2023-01-25T13:18:28.915Z,48.17
2023-01-25T13:22:45.746Z,46.20
2023-01-25T13:26:50.486Z,50.10
2023-01-25T13:30:53.571Z,47.53
2023-01-25T13:34:57.378Z,50.13
2023-01-25T13:38:59.323Z,47.65
2023-01-25T13:43:13.176Z,51.17
2023-01-25T13:47:22.109Z,56.10
2023-01-25T13:51:28.274Z,47.38
2023-01-25T13:55:40.516Z,56.47
2023-01-25T13:59:42.535Z,50.50
2023-01-25T14:03:47.480Z,61.67
2023-01-25T14:07:53.483Z,52.20
2023-01-25T14:11:58.568Z,49.63
2023-01-25T14:16:04.360Z,48.13
2023-01-25T14:20:21.031Z,50.70
2023-01-25T14:24:23.484Z,74.55
2023-01-25T14:28:26.634Z,50.78
2023-01-25T14:32:29.859Z,50.42
2023-01-25T14:36:35.075Z,49.90
2023-01-25T14:40:37.420Z,52.33
2023-01-25T14:44:39.992Z,51.08
2023-01-25T14:48:42.370Z,52.53
2023-01-25T14:52:44.247Z,51.72
2023-01-25T14:56:49.962Z,51.58
2023-01-25T15:00:57.653Z,51.42
2023-01-25T15:05:14.651Z,49.35
2023-01-25T15:09:34.507Z,51.23
2023-01-25T15:13:36.557Z,51.90
2023-01-25T15:17:50.766Z,53.67
2023-01-25T15:21:55.581Z,52.13
2023-01-25T15:25:59.965Z,54.38
2023-01-25T15:30:01.803Z,55.83
2023-01-25T15:34:04.905Z,53.95
2023-01-25T15:38:12.536Z,53.92
2023-01-25T15:42:14.161Z,40.67
2023-01-25T15:46:25.481Z,53.08
2023-01-25T15:50:29.134Z,52.85
2023-01-25T15:54:31.328Z,53.75
2023-01-25T15:58:36.460Z,102.10
2023-01-25T16:02:38.194Z,53.25
2023-01-25T16:06:45.902Z,53.53
2023-01-25T16:10:48.131Z,53.10
2023-01-25T16:14:49.707Z,50.05
2023-01-25T16:18:51.802Z,52.75
2023-01-25T16:22:53.783Z,56.00
2023-01-25T16:26:58.482Z,59.03
2023-01-25T16:31:00.734Z,62.38
2023-01-25T16:35:02.818Z,73.72
2023-01-25T16:39:25.359Z,57.88
2023-01-25T16:43:37.986Z,62.38
2023-01-25T16:47:44.194Z,78.57
2023-01-25T16:51:46.310Z,74.20
2023-01-25T16:55:49.472Z,58.33
2023-01-25T16:59:51.491Z,53.17
2023-01-25T17:03:54.894Z,63.28
2023-01-25T17:07:56.583Z,58.75
2023-01-25T17:11:58.584Z,54.88
2023-01-25T17:16:03.453Z,53.53
2023-01-25T17:20:05.977Z,53.72
2023-01-25T17:24:08.728Z,52.72
2023-01-25T17:28:10.722Z,52.10
2023-01-25T17:32:12.666Z,59.75
2023-01-25T17:36:15.331Z,54.80
2023-01-25T17:40:17.115Z,56.45
2023-01-25T17:44:21.405Z,53.40
2023-01-25T17:48:23.493Z,51.95
2023-01-25T17:52:25.537Z,59.50
2023-01-25T17:56:27.651Z,59.35
2023-01-25T18:00:29.772Z,57.15
2023-01-25T18:04:33.672Z,55.53
2023-01-25T18:08:46.559Z,56.10
2023-01-25T18:13:03.760Z,54.58
2023-01-25T18:17:07.280Z,47.58
2023-01-25T18:21:14.918Z,49.58
2023-01-25T18:25:34.595Z,52.65
2023-01-25T18:29:39.352Z,54.92
2023-01-25T18:33:41.450Z,54.17
2023-01-25T18:37:45.818Z,51.72
2023-01-25T18:41:49.903Z,49.08
2023-01-25T18:45:56.634Z,49.58
2023-01-25T18:49:58.869Z,54.72
2023-01-25T18:54:01.283Z,46.20
2023-01-25T18:58:04.587Z,50.03
2023-01-25T19:02:07.956Z,46.53
2023-01-25T19:06:10.661Z,50.15
2023-01-25T19:10:16.688Z,49.72
2023-01-25T19:14:24.579Z,48.67
2023-01-25T19:18:30.776Z,47.10
2023-01-25T19:22:32.659Z,40.17
2023-01-25T19:26:34.638Z,44.25
2023-01-25T19:30:36.679Z,43.55
2023-01-25T19:34:38.801Z,44.20
2023-01-25T19:38:41.294Z,45.63
2023-01-25T19:42:42.989Z,45.53
2023-01-25T19:46:44.966Z,45.03
2023-01-25T19:50:46.933Z,47.90
2023-01-25T19:54:48.924Z,45.78
2023-01-25T19:58:51.150Z,72.25
2023-01-25T20:02:52.819Z,53.97
2023-01-25T20:06:54.954Z,50.60
2023-01-25T20:11:01.835Z,44.95
2023-01-25T20:15:03.827Z,45.42
2023-01-25T20:19:05.983Z,44.20
2023-01-25T20:23:08.128Z,45.85
2023-01-25T20:27:09.997Z,45.80
2023-01-25T20:31:26.942Z,48.17
2023-01-25T20:35:29.837Z,49.58
2023-01-25T20:39:31.987Z,44.47
2023-01-25T20:43:34.689Z,48.90
2023-01-25T20:47:36.461Z,44.47
2023-01-25T20:51:38.563Z,48.00
2023-01-25T20:55:40.712Z,45.35
2023-01-25T20:59:42.888Z,45.78
2023-01-25T21:03:46.567Z,46.08
2023-01-25T21:07:48.486Z,45.88
2023-01-25T21:11:50.634Z,47.10
2023-01-25T21:16:14.958Z,44.45
2023-01-25T21:20:17.185Z,55.45
2023-01-25T21:24:19.163Z,46.42
2023-01-25T21:28:21.211Z,45.47
2023-01-25T21:32:23.520Z,46.35
2023-01-25T21:36:25.990Z,47.72
2023-01-25T21:40:28.996Z,44.97
2023-01-25T21:44:49.372Z,48.65
2023-01-25T21:49:29.300Z,45.95
2023-01-25T21:53:31.226Z,48.92
2023-01-25T21:57:33.379Z,46.78
2023-01-25T22:01:35.324Z,45.95
2023-01-25T22:05:37.037Z,47.50
2023-01-25T22:09:39.123Z,49.90
2023-01-25T22:13:41.514Z,47.38
2023-01-25T22:17:43.822Z,48.53
2023-01-25T22:21:46.280Z,46.67
2023-01-25T22:25:49.588Z,49.13
2023-01-25T22:29:51.654Z,51.65
2023-01-25T22:33:54.887Z,50.92
2023-01-25T22:37:56.903Z,54.65
2023-01-25T22:41:58.881Z,51.75
2023-01-25T22:46:01.369Z,51.75
2023-01-25T22:50:03.217Z,52.05
2023-01-25T22:54:05.610Z,55.25
2023-01-25T22:58:08.402Z,50.95
2023-01-25T23:02:10.500Z,51.22
2023-01-25T23:06:15.106Z,52.92
2023-01-25T23:10:17.801Z,53.25
2023-01-25T23:14:38.422Z,56.90
2023-01-25T23:18:52.679Z,53.85
2023-01-25T23:22:54.693Z,56.40
2023-01-25T23:26:56.742Z,56.33
2023-01-25T23:31:17.233Z,56.42
2023-01-25T23:35:19.954Z,54.30
2023-01-25T23:39:23.658Z,57.08
2023-01-25T23:43:25.707Z,58.30
2023-01-25T23:47:30.800Z,54.95
2023-01-25T23:51:33.054Z,59.47
2023-01-25T23:55:35.071Z,54.33
2023-01-25T23:59:37.583Z,54.25
